createdAt,value
2023-04-21T00:00:10.413Z,79.50
2023-04-21T00:02:41.511Z,79.50
2023-04-21T00:05:11.086Z,79.50
2023-04-21T00:07:39.495Z,79.60
2023-04-21T00:10:11.567Z,79.80
2023-04-21T00:12:39.041Z,79.80
2023-04-21T00:15:07.366Z,79.90
2023-04-21T00:17:34.615Z,80.00
2023-04-21T00:20:01.911Z,80.00
2023-04-21T00:22:29.158Z,80.20
2023-04-21T00:24:56.351Z,80.30
2023-04-21T00:27:23.580Z,80.50
2023-04-21T00:29:50.740Z,80.70
2023-04-21T00:32:17.958Z,80.90
2023-04-21T00:34:45.657Z,80.90
2023-04-21T00:37:12.877Z,81.00
2023-04-21T00:39:40.406Z,80.70
2023-04-21T00:42:07.676Z,80.40
2023-04-21T00:44:34.918Z,80.10
2023-04-21T00:47:02.254Z,79.60
2023-04-21T00:49:29.804Z,80.10
2023-04-21T00:51:57.056Z,78.90
2023-04-21T00:54:26.173Z,79.00
2023-04-21T00:56:55.346Z,77.80
2023-04-21T00:59:22.522Z,77.30
2023-04-21T01:01:50.118Z,76.70
2023-04-21T01:04:17.394Z,76.40
2023-04-21T01:06:45.590Z,76.20
2023-04-21T01:09:13.464Z,75.90
2023-04-21T01:11:40.999Z,75.60
2023-04-21T01:14:08.395Z,75.40
2023-04-21T01:16:36.888Z,75.10
2023-04-21T01:19:05.737Z,75.00
2023-04-21T01:21:43.059Z,74.80
2023-04-21T01:24:11.736Z,74.60
2023-04-21T01:26:39.386Z,74.40
2023-04-21T01:29:06.948Z,74.30
2023-04-21T01:31:34.230Z,74.40
2023-04-21T01:34:05.157Z,74.10
2023-04-21T01:36:32.743Z,74.10
2023-04-21T01:39:00.020Z,74.20
2023-04-21T01:41:27.354Z,74.30
2023-04-21T01:43:54.540Z,74.20
2023-04-21T01:46:21.984Z,74.20
2023-04-21T01:48:49.329Z,74.20
2023-04-21T01:51:16.506Z,74.20
2023-04-21T01:53:43.683Z,74.20
2023-04-21T01:56:15.283Z,74.20
2023-04-21T01:58:42.473Z,74.00
2023-04-21T02:01:09.739Z,73.90
2023-04-21T02:03:37.283Z,73.70
2023-04-21T02:06:04.981Z,73.60
2023-04-21T02:08:32.125Z,73.60
2023-04-21T02:11:02.295Z,73.50
2023-04-21T02:13:29.472Z,73.60
2023-04-21T02:16:09.635Z,73.50
2023-04-21T02:18:40.069Z,73.30
2023-04-21T02:21:07.492Z,73.30
2023-04-21T02:23:34.708Z,73.30
2023-04-21T02:26:01.912Z,73.20
2023-04-21T02:28:29.254Z,73.10
2023-04-21T02:30:56.601Z,72.90
2023-04-21T02:33:23.975Z,73.00
2023-04-21T02:35:51.284Z,72.90
2023-04-21T02:38:18.540Z,73.00
2023-04-21T02:40:45.836Z,72.90
2023-04-21T02:43:14.751Z,72.60
2023-04-21T02:45:42.033Z,72.60
2023-04-21T02:48:09.799Z,72.40
2023-04-21T02:50:37.112Z,72.40
2023-04-21T02:53:04.552Z,72.40
2023-04-21T02:55:32.148Z,72.40
2023-04-21T02:57:59.339Z,72.30
2023-04-21T03:00:26.905Z,72.30
2023-04-21T03:02:54.324Z,72.20
2023-04-21T03:05:21.798Z,72.30
2023-04-21T03:07:49.031Z,72.30
2023-04-21T03:10:16.403Z,72.60
2023-04-21T03:12:43.615Z,72.50
2023-04-21T03:15:11.515Z,73.50
2023-04-21T03:17:39.044Z,73.10
2023-04-21T03:20:08.444Z,73.30
2023-04-21T03:22:36.309Z,73.40
2023-04-21T03:25:04.702Z,73.70
2023-04-21T03:27:32.310Z,73.90
2023-04-21T03:29:59.792Z,74.00
2023-04-21T03:32:27.045Z,73.90
2023-04-21T03:34:54.336Z,74.30
2023-04-21T03:37:21.850Z,74.50
2023-04-21T03:39:49.093Z,74.70
2023-04-21T03:42:16.595Z,74.90
2023-04-21T03:44:43.814Z,75.20
2023-04-21T03:47:11.005Z,75.40
2023-04-21T03:49:38.240Z,75.50
2023-04-21T03:52:05.646Z,75.80
2023-04-21T03:54:32.890Z,76.10
2023-04-21T03:57:00.218Z,76.10
2023-04-21T03:59:27.409Z,76.30
2023-04-21T04:01:54.615Z,76.50
2023-04-21T04:04:22.138Z,76.60
2023-04-21T04:06:49.440Z,76.80
2023-04-21T04:09:16.710Z,76.80
2023-04-21T04:11:44.032Z,76.90
2023-04-21T04:14:11.391Z,77.70
2023-04-21T04:16:38.734Z,77.00
2023-04-21T04:19:06.108Z,77.00
2023-04-21T04:21:33.806Z,76.70
2023-04-21T04:24:02.490Z,76.50
2023-04-21T04:26:29.955Z,76.60
2023-04-21T04:28:57.216Z,76.70
2023-04-21T04:31:25.488Z,76.50
2023-04-21T04:33:55.324Z,76.30
2023-04-21T04:36:24.475Z,75.90
2023-04-21T04:38:51.864Z,75.70
2023-04-21T04:41:21.142Z,75.80
2023-04-21T04:43:48.352Z,75.40
2023-04-21T04:46:15.573Z,75.10
2023-04-21T04:48:42.806Z,74.70
2023-04-21T04:51:10.055Z,74.60
2023-04-21T04:53:37.497Z,74.50
2023-04-21T04:56:04.910Z,74.40
2023-04-21T04:58:32.068Z,74.90
2023-04-21T05:00:59.234Z,74.00
2023-04-21T05:03:26.625Z,73.80
2023-04-21T05:05:54.421Z,73.60
2023-04-21T05:08:21.633Z,73.20
2023-04-21T05:10:48.876Z,72.90
2023-04-21T05:13:18.026Z,72.50
2023-04-21T05:15:45.254Z,72.20
2023-04-21T05:18:12.499Z,71.80
2023-04-21T05:20:42.732Z,71.40
2023-04-21T05:23:09.940Z,70.90
2023-04-21T05:25:38.698Z,70.60
2023-04-21T05:28:05.993Z,70.30
2023-04-21T05:30:33.213Z,69.80
2023-04-21T05:33:00.504Z,69.80
2023-04-21T05:35:30.926Z,69.40
2023-04-21T05:38:03.512Z,68.90
2023-04-21T05:40:30.731Z,68.90
2023-04-21T05:42:57.981Z,68.40
2023-04-21T05:45:25.227Z,68.20
2023-04-21T05:47:52.570Z,67.60
2023-04-21T05:50:20.105Z,67.60
2023-04-21T05:52:47.327Z,67.50
2023-04-21T05:55:14.550Z,67.20
2023-04-21T05:57:41.796Z,67.00
2023-04-21T06:00:09.979Z,66.70
2023-04-21T06:02:37.483Z,66.50
2023-04-21T06:05:05.563Z,66.20
2023-04-21T06:07:37.315Z,66.00
2023-04-21T06:10:05.275Z,65.90
2023-04-21T06:12:32.510Z,65.80
2023-04-21T06:14:59.919Z,65.20
2023-04-21T06:17:27.198Z,65.00
2023-04-21T06:19:56.112Z,64.60
2023-04-21T06:22:24.115Z,64.40
2023-04-21T06:24:51.895Z,64.10
2023-04-21T06:27:19.236Z,64.00
2023-04-21T06:29:46.416Z,63.80
2023-04-21T06:32:13.768Z,63.50
2023-04-21T06:34:41.069Z,63.30
2023-04-21T06:37:08.224Z,63.20
2023-04-21T06:39:35.542Z,63.00
2023-04-21T06:42:02.757Z,62.80
2023-04-21T06:44:32.619Z,62.50
2023-04-21T06:46:59.895Z,62.40
2023-04-21T06:49:27.209Z,62.00
2023-04-21T06:51:54.452Z,61.80
2023-04-21T06:54:21.644Z,61.30
2023-04-21T06:56:51.413Z,60.70
2023-04-21T06:59:18.877Z,60.70
2023-04-21T07:01:49.032Z,61.00
2023-04-21T07:04:16.376Z,60.40
2023-04-21T07:06:43.790Z,60.00
2023-04-21T07:09:11.163Z,59.90
2023-04-21T07:11:38.504Z,59.30
2023-04-21T07:14:06.686Z,59.00
2023-04-21T07:16:33.980Z,58.30
2023-04-21T07:19:01.806Z,57.80
2023-04-21T07:21:31.046Z,57.20
2023-04-21T07:23:59.039Z,56.60
2023-04-21T07:26:26.252Z,56.20
2023-04-21T07:28:53.999Z,55.60
2023-04-21T07:31:21.550Z,55.40
2023-04-21T07:33:48.804Z,54.30
2023-04-21T07:36:16.804Z,53.20
2023-04-21T07:38:44.604Z,52.20
2023-04-21T07:41:13.573Z,51.50
2023-04-21T07:43:41.273Z,50.70
2023-04-21T07:46:08.687Z,50.20
2023-04-21T07:48:35.893Z,49.60
2023-04-21T07:51:03.645Z,49.20
2023-04-21T07:53:31.201Z,48.30
2023-04-21T07:55:58.883Z,47.00
2023-04-21T07:58:26.137Z,46.40
2023-04-21T08:00:53.593Z,46.50
2023-04-21T08:03:23.815Z,45.80
2023-04-21T08:05:52.149Z,45.20
2023-04-21T08:08:20.541Z,44.50
2023-04-21T08:10:48.029Z,44.20
2023-04-21T08:13:15.360Z,44.00
2023-04-21T08:15:42.599Z,43.50
2023-04-21T08:18:09.870Z,43.40
2023-04-21T08:20:37.209Z,43.40
2023-04-21T08:23:04.564Z,43.40
2023-04-21T08:25:31.810Z,43.10
2023-04-21T08:27:58.986Z,43.30
2023-04-21T08:30:28.658Z,43.50
2023-04-21T08:32:56.088Z,43.90
2023-04-21T08:35:23.927Z,44.10
2023-04-21T08:37:52.225Z,44.50
2023-04-21T08:40:20.699Z,44.70
2023-04-21T08:42:49.106Z,44.80
2023-04-21T08:45:16.485Z,44.60
2023-04-21T08:47:43.821Z,44.40
2023-04-21T08:50:15.145Z,44.30
2023-04-21T08:52:42.395Z,44.20
2023-04-21T08:55:11.709Z,43.70
2023-04-21T08:57:38.916Z,43.60
2023-04-21T09:00:08.379Z,43.30
2023-04-21T09:03:02.158Z,43.10
2023-04-21T09:05:32.957Z,42.00
2023-04-21T09:08:11.848Z,42.10
2023-04-21T09:10:49.153Z,41.90
2023-04-21T09:13:18.842Z,41.20
2023-04-21T09:15:52.445Z,41.50
2023-04-21T09:18:23.767Z,41.50
2023-04-21T09:21:07.994Z,41.30
2023-04-21T09:23:50.467Z,41.40
2023-04-21T09:26:22.714Z,41.80
2023-04-21T09:28:52.640Z,42.00
2023-04-21T09:31:24.882Z,41.90
2023-04-21T09:34:00.301Z,41.80
2023-04-21T09:36:31.990Z,41.60
2023-04-21T09:41:34.910Z,41.60
2023-04-21T09:44:04.473Z,41.40
2023-04-21T09:46:35.856Z,41.20
2023-04-21T09:49:04.429Z,40.30
2023-04-21T09:51:56.239Z,40.30
2023-04-21T09:56:56.481Z,39.60
2023-04-21T09:59:30.886Z,39.30
2023-04-21T10:02:01.465Z,39.60
2023-04-21T10:04:32.589Z,39.70
2023-04-21T10:07:01.279Z,39.20
2023-04-21T10:09:36.994Z,39.10
2023-04-21T10:12:07.805Z,39.00
2023-04-21T10:14:36.568Z,39.50
2023-04-21T10:17:10.146Z,39.00
2023-04-21T10:19:47.954Z,38.30
2023-04-21T10:22:26.435Z,38.00
2023-04-21T10:24:57.236Z,37.80
2023-04-21T10:27:43.123Z,37.70
2023-04-21T10:30:28.971Z,37.70
2023-04-21T10:33:06.450Z,38.30
2023-04-21T10:36:03.200Z,39.30
2023-04-21T10:38:42.848Z,38.70
2023-04-21T10:41:36.114Z,39.00
2023-04-21T10:44:14.012Z,39.10
2023-04-21T10:46:47.199Z,38.90
2023-04-21T10:49:30.859Z,38.90
2023-04-21T10:51:58.312Z,39.60
2023-04-21T10:54:36.815Z,39.80
2023-04-21T10:57:09.043Z,40.00
2023-04-21T10:59:36.694Z,40.00
2023-04-21T11:02:11.789Z,40.20
2023-04-21T11:04:45.080Z,40.60
2023-04-21T11:07:16.708Z,40.40
2023-04-21T11:09:46.481Z,40.70
2023-04-21T11:12:20.062Z,40.70
2023-04-21T11:14:48.235Z,40.80
2023-04-21T11:17:21.312Z,40.90
2023-04-21T11:19:54.762Z,40.80
2023-04-21T11:22:25.199Z,40.90
2023-04-21T11:24:57.556Z,40.90
2023-04-21T11:27:29.521Z,41.00
2023-04-21T11:29:57.657Z,41.00
2023-04-21T11:32:25.447Z,41.10
2023-04-21T11:34:52.749Z,41.00
2023-04-21T11:37:27.908Z,41.30
2023-04-21T11:40:02.883Z,41.40
2023-04-21T11:42:30.567Z,41.50
2023-04-21T11:44:58.057Z,41.40
2023-04-21T11:47:27.268Z,41.10
2023-04-21T11:50:01.000Z,40.90
2023-04-21T11:52:39.317Z,40.30
2023-04-21T11:55:18.767Z,39.30
2023-04-21T11:57:45.946Z,40.70
2023-04-21T12:00:16.887Z,41.00
2023-04-21T12:02:44.385Z,41.10
2023-04-21T12:05:13.608Z,41.00
2023-04-21T12:07:46.177Z,39.70
2023-04-21T12:10:16.812Z,40.60
2023-04-21T12:12:44.955Z,40.80
2023-04-21T12:15:19.635Z,41.00
2023-04-21T12:17:53.479Z,40.60
2023-04-21T12:20:24.395Z,40.40
2023-04-21T12:22:52.536Z,40.00
2023-04-21T12:25:20.029Z,39.60
2023-04-21T12:27:54.201Z,38.00
2023-04-21T12:30:21.795Z,37.50
2023-04-21T12:32:49.230Z,38.00
2023-04-21T12:35:16.416Z,38.70
2023-04-21T12:37:44.744Z,38.90
2023-04-21T12:40:11.970Z,39.00
2023-04-21T12:42:39.149Z,38.90
2023-04-21T12:45:06.988Z,39.20
2023-04-21T12:47:35.152Z,39.20
2023-04-21T12:50:02.444Z,39.80
2023-04-21T12:52:29.510Z,39.40
2023-04-21T12:54:56.544Z,39.30
2023-04-21T12:57:23.641Z,38.40
2023-04-21T12:59:50.940Z,39.00
2023-04-21T13:02:18.134Z,38.80
2023-04-21T13:04:45.438Z,37.60
2023-04-21T13:07:12.660Z,37.80
2023-04-21T13:09:39.704Z,37.30
2023-04-21T13:12:07.010Z,37.50
2023-04-21T13:14:34.100Z,37.60
2023-04-21T13:17:01.276Z,38.00
2023-04-21T13:19:29.701Z,38.10
2023-04-21T13:21:57.062Z,37.80
2023-04-21T13:24:25.938Z,37.90
2023-04-21T13:26:53.133Z,37.70
2023-04-21T13:29:20.305Z,37.80
2023-04-21T13:31:47.473Z,37.60
2023-04-21T13:34:14.879Z,37.60
2023-04-21T13:36:42.313Z,37.60
2023-04-21T13:39:10.318Z,36.80
2023-04-21T13:41:37.480Z,37.30
2023-04-21T13:44:04.607Z,37.60
2023-04-21T13:46:31.911Z,37.50
2023-04-21T13:48:59.610Z,38.00
2023-04-21T13:51:26.792Z,38.10
2023-04-21T13:53:53.950Z,37.90
2023-04-21T13:56:21.086Z,38.10
2023-04-21T13:58:48.541Z,38.30
2023-04-21T14:01:16.187Z,38.00
2023-04-21T14:03:43.621Z,38.30
2023-04-21T14:06:11.006Z,38.40
2023-04-21T14:08:38.308Z,38.10
2023-04-21T14:11:06.526Z,38.10
2023-04-21T14:13:37.841Z,38.20
2023-04-21T14:16:09.631Z,38.30
2023-04-21T14:18:38.433Z,38.20
2023-04-21T14:21:05.748Z,38.00
2023-04-21T14:23:32.859Z,38.00
2023-04-21T14:26:00.043Z,38.00
2023-04-21T14:28:27.135Z,38.30
2023-04-21T14:30:54.263Z,38.40
2023-04-21T14:33:21.374Z,38.60
2023-04-21T14:35:48.706Z,38.60
2023-04-21T14:38:16.173Z,38.20
2023-04-21T14:40:43.316Z,38.20
2023-04-21T14:43:11.671Z,38.20
2023-04-21T14:45:41.194Z,38.20
2023-04-21T14:48:08.600Z,38.20
2023-04-21T14:50:35.834Z,38.30
2023-04-21T14:53:02.908Z,38.50
2023-04-21T14:55:29.992Z,38.40
2023-04-21T14:57:57.035Z,38.40
2023-04-21T15:00:24.648Z,38.50
2023-04-21T15:02:52.937Z,38.60
2023-04-21T15:05:20.282Z,38.50
2023-04-21T15:07:47.422Z,38.40
2023-04-21T15:10:14.586Z,38.80
2023-04-21T15:12:41.957Z,39.00
2023-04-21T15:15:09.316Z,39.00
2023-04-21T15:17:36.636Z,39.00
2023-04-21T15:20:04.053Z,39.00
2023-04-21T15:22:31.325Z,39.10
2023-04-21T15:24:58.682Z,38.90
2023-04-21T15:27:25.750Z,39.10
2023-04-21T15:29:52.927Z,39.00
2023-04-21T15:32:20.579Z,39.20
2023-04-21T15:34:47.675Z,39.20
2023-04-21T15:37:17.146Z,39.30
2023-04-21T15:39:44.266Z,39.30
2023-04-21T15:42:11.525Z,39.30
2023-04-21T15:44:39.645Z,39.50
2023-04-21T15:47:07.042Z,39.20
2023-04-21T15:49:34.329Z,39.50
2023-04-21T15:52:03.964Z,39.70
2023-04-21T15:54:34.236Z,39.90
2023-04-21T15:57:02.251Z,40.00
2023-04-21T15:59:29.445Z,40.00
2023-04-21T16:01:59.607Z,40.00
2023-04-21T16:04:27.006Z,39.30
2023-04-21T16:06:54.281Z,39.80
2023-04-21T16:09:21.730Z,39.80
2023-04-21T16:11:51.981Z,39.00
2023-04-21T16:14:19.157Z,38.40
2023-04-21T16:16:46.504Z,37.90
2023-04-21T16:19:13.801Z,37.40
2023-04-21T16:21:42.382Z,37.40
2023-04-21T16:24:09.823Z,37.80
2023-04-21T16:26:37.061Z,38.40
2023-04-21T16:29:04.340Z,38.50
2023-04-21T16:31:35.048Z,38.90
2023-04-21T16:34:02.218Z,39.00
2023-04-21T16:36:31.222Z,39.10
2023-04-21T16:38:58.823Z,39.10
2023-04-21T16:41:25.967Z,39.10
2023-04-21T16:43:53.176Z,39.00
2023-04-21T16:46:20.351Z,39.00
2023-04-21T16:48:47.701Z,39.00
2023-04-21T16:51:14.884Z,39.10
2023-04-21T16:53:42.601Z,39.30
2023-04-21T16:56:10.189Z,39.30
2023-04-21T16:58:37.785Z,39.50
2023-04-21T17:01:07.637Z,39.30
2023-04-21T17:03:35.257Z,39.30
2023-04-21T17:06:04.957Z,39.30
2023-04-21T17:08:32.217Z,39.70
2023-04-21T17:11:00.272Z,39.70
2023-04-21T17:13:27.531Z,39.60
2023-04-21T17:15:55.061Z,39.60
2023-04-21T17:18:22.340Z,39.50
2023-04-21T17:20:49.612Z,39.90
2023-04-21T17:23:17.059Z,40.00
2023-04-21T17:25:44.341Z,40.10
2023-04-21T17:28:11.882Z,40.50
2023-04-21T17:30:39.065Z,40.70
2023-04-21T17:33:16.147Z,40.90
2023-04-21T17:35:59.937Z,41.30
2023-04-21T17:38:30.462Z,41.50
2023-04-21T17:40:58.099Z,42.20
2023-04-21T17:43:25.496Z,42.70
2023-04-21T17:45:52.798Z,43.30
2023-04-21T17:48:21.286Z,43.80
2023-04-21T17:50:48.433Z,44.40
2023-04-21T17:53:15.668Z,44.50
2023-04-21T17:55:43.100Z,44.80
2023-04-21T17:58:12.531Z,45.70
2023-04-21T18:00:40.027Z,46.20
2023-04-21T18:03:07.643Z,46.80
2023-04-21T18:05:35.071Z,47.00
2023-04-21T18:08:03.124Z,47.50
2023-04-21T18:10:30.601Z,47.80
2023-04-21T18:12:58.362Z,48.10
2023-04-21T18:15:25.826Z,48.50
2023-04-21T18:17:53.388Z,48.80
2023-04-21T18:20:20.992Z,49.20
2023-04-21T18:22:49.645Z,49.30
2023-04-21T18:25:27.271Z,49.70
2023-04-21T18:28:05.500Z,49.90
2023-04-21T18:30:33.094Z,50.10
2023-04-21T18:33:00.755Z,50.30
2023-04-21T18:35:28.011Z,50.50
2023-04-21T18:37:55.294Z,50.60
2023-04-21T18:40:22.664Z,51.00
2023-04-21T18:42:50.279Z,51.00
2023-04-21T18:45:18.312Z,51.20
2023-04-21T18:47:48.271Z,51.40
2023-04-21T18:50:15.617Z,51.60
2023-04-21T18:52:43.422Z,51.90
2023-04-21T18:55:10.690Z,52.00
2023-04-21T18:57:37.972Z,52.20
2023-04-21T19:00:07.348Z,53.00
2023-04-21T19:02:34.768Z,52.50
2023-04-21T19:05:02.419Z,52.60
2023-04-21T19:07:29.617Z,52.90
2023-04-21T19:09:56.826Z,53.00
2023-04-21T19:12:24.151Z,53.10
2023-04-21T19:14:51.928Z,53.30
2023-04-21T19:17:19.413Z,53.50
2023-04-21T19:19:46.748Z,53.50
2023-04-21T19:22:14.006Z,53.80
2023-04-21T19:24:41.264Z,53.80
2023-04-21T19:27:08.707Z,54.00
2023-04-21T19:29:37.073Z,54.10
2023-04-21T19:32:04.565Z,54.20
2023-04-21T19:34:32.202Z,54.30
2023-04-21T19:37:00.950Z,54.40
2023-04-21T19:39:28.798Z,54.60
2023-04-21T19:41:57.527Z,54.70
2023-04-21T19:44:24.807Z,54.70
2023-04-21T19:46:52.406Z,54.70
2023-04-21T19:49:19.706Z,54.70
2023-04-21T19:51:47.020Z,55.00
2023-04-21T19:54:14.316Z,55.30
2023-04-21T19:56:41.664Z,55.50
2023-04-21T19:59:08.894Z,55.60
2023-04-21T20:01:36.607Z,55.60
2023-04-21T20:04:04.661Z,55.80
2023-04-21T20:06:32.475Z,55.90
2023-04-21T20:08:59.723Z,56.00
2023-04-21T20:11:28.949Z,56.00
2023-04-21T20:13:56.631Z,56.10
2023-04-21T20:16:26.306Z,56.30
2023-04-21T20:18:55.856Z,56.40
2023-04-21T20:21:23.195Z,56.60
2023-04-21T20:23:50.445Z,56.60
2023-04-21T20:26:17.756Z,56.70
2023-04-21T20:28:44.956Z,56.80
2023-04-21T20:31:12.204Z,57.40
2023-04-21T20:33:39.513Z,56.90
2023-04-21T20:36:09.719Z,57.00
2023-04-21T20:38:38.420Z,57.10
2023-04-21T20:41:05.664Z,57.80
2023-04-21T20:43:33.372Z,57.20
2023-04-21T20:46:01.777Z,57.40
2023-04-21T20:48:29.120Z,57.50
2023-04-21T20:50:56.472Z,57.50
2023-04-21T20:53:23.860Z,57.60
2023-04-21T20:55:51.199Z,57.90
2023-04-21T20:58:18.491Z,57.90
2023-04-21T21:00:45.796Z,58.10
2023-04-21T21:03:13.939Z,58.20
2023-04-21T21:05:41.546Z,58.30
2023-04-21T21:08:09.260Z,58.40
2023-04-21T21:10:36.504Z,58.50
2023-04-21T21:13:04.534Z,58.50
2023-04-21T21:15:31.853Z,58.60
2023-04-21T21:17:59.164Z,58.70
2023-04-21T21:20:26.728Z,58.70
2023-04-21T21:22:54.122Z,58.70
2023-04-21T21:25:21.617Z,58.70
2023-04-21T21:27:48.958Z,58.90
2023-04-21T21:30:16.410Z,58.90
2023-04-21T21:32:43.761Z,59.00
2023-04-21T21:35:12.078Z,59.00
2023-04-21T21:37:39.787Z,59.10
2023-04-21T21:40:08.313Z,59.20
2023-04-21T21:42:35.455Z,59.20
2023-04-21T21:45:02.645Z,59.20
2023-04-21T21:47:29.910Z,59.10
2023-04-21T21:49:58.918Z,58.90
2023-04-21T21:52:28.628Z,59.00
2023-04-21T21:54:56.964Z,59.00
2023-04-21T21:57:24.804Z,59.10
2023-04-21T21:59:52.695Z,59.70
2023-04-21T22:02:19.969Z,59.20
2023-04-21T22:04:47.702Z,59.30
2023-04-21T22:07:14.988Z,59.40
2023-04-21T22:09:42.224Z,59.40
2023-04-21T22:12:09.641Z,59.50
2023-04-21T22:14:36.894Z,59.60
2023-04-21T22:17:04.423Z,59.60
2023-04-21T22:19:31.740Z,59.60
2023-04-21T22:21:59.017Z,59.60
2023-04-21T22:24:26.709Z,59.70
2023-04-21T22:26:53.901Z,59.70
2023-04-21T22:29:21.268Z,59.80
2023-04-21T22:31:48.662Z,59.90
2023-04-21T22:34:16.835Z,59.80
2023-04-21T22:36:44.139Z,59.80
2023-04-21T22:39:11.790Z,60.00
2023-04-21T22:41:39.369Z,59.90
2023-04-21T22:44:06.630Z,59.90
2023-04-21T22:46:34.072Z,59.80
2023-04-21T22:49:03.319Z,59.80
2023-04-21T22:51:32.591Z,59.80
2023-04-21T22:54:00.669Z,59.90
2023-04-21T22:56:30.323Z,60.00
2023-04-21T22:58:57.890Z,59.90
2023-04-21T23:01:25.260Z,59.90
2023-04-21T23:03:52.746Z,59.90
2023-04-21T23:06:20.158Z,59.90
2023-04-21T23:08:47.491Z,59.90
2023-04-21T23:11:14.736Z,59.90
2023-04-21T23:13:42.134Z,59.90
2023-04-21T23:16:09.471Z,60.00
2023-04-21T23:18:36.881Z,60.00
2023-04-21T23:21:04.277Z,60.20
2023-04-21T23:23:31.696Z,60.30
2023-04-21T23:25:59.390Z,60.30
2023-04-21T23:28:26.618Z,60.30
2023-04-21T23:30:53.988Z,60.30
2023-04-21T23:33:21.346Z,60.40
2023-04-21T23:35:48.563Z,60.40
2023-04-21T23:38:15.866Z,60.50
2023-04-21T23:40:43.122Z,60.60
2023-04-21T23:43:10.676Z,60.60
2023-04-21T23:45:37.940Z,60.70
2023-04-21T23:48:05.251Z,60.60
2023-04-21T23:50:32.903Z,60.70
2023-04-21T23:53:00.217Z,60.90
2023-04-21T23:55:27.553Z,61.00
2023-04-21T23:57:54.747Z,61.10
